Jbu Maas — 3EQY6 — position and weather

sailwx.info

Track history (hours):
 
Tides and Currents Weather Stations Pressure Air Temp Water Temp Dewpoint Dewpoint Depression Visibility Wind Speed Wind Dir Waves Ship Positions

Jbu Maas

Last reported at 2015-Aug-30 17:33 UTC. Time now 2015-Sep-02 19:04 UTC.
Position N 01°15' E 104°04'.

Length 126 m; draft 7.3 m.

Type: Tanker. MMSI: 372492000.

Date/timePositionNaut miles runAvg speedWind from/ knotsBaromVisibWave heightAir tempDewpointWater temp
2015-Aug-30 17:33N 01°15' E 104°04'1515.3
2015-Aug-30 16:33N 01°10' E 103°49'10 4.2
2015-Aug-30 14:04N 01°12' E 103°39'1 0.5
2015-Aug-30 11:27N 01°13' E 103°39'7 7.9
2015-Aug-30 10:32N 01°16' E 103°46'2 0.8
2015-Aug-30 08:32N 01°14' E 103°45'0 0.0
2015-Aug-30 07:26N 01°14' E 103°45'0 0.0
2015-Aug-30 06:08N 01°14' E 103°45'0 0.0
2015-Aug-30 04:14N 01°14' E 103°45'0 0.0
2015-Aug-30 03:26N 01°14' E 103°45'0 0.0
2015-Aug-30 00:20N 01°14' E 103°45'0 0.0
2015-Aug-29 23:32N 01°14' E 103°45'0 0.0
2015-Aug-29 21:26N 01°14' E 103°45'0 0.0
2015-Aug-29 19:26N 01°14' E 103°45'0 0.0
2015-Aug-29 18:32N 01°14' E 103°45'0 0.0
2015-Aug-29 17:08N 01°14' E 103°45'0 0.0
2015-Aug-29 16:32N 01°14' E 103°45'1 0.0
2015-Aug-28 23:33N 01°15' E 103°45'7 0.3
2015-Aug-28 01:24N 01°12' E 103°52'1214.5
2015-Aug-28 00:33N 01°16' E 104°04'  
2015-Aug-22 14:33N 01°14' E 104°00'21 7.0
2015-Aug-22 11:31N 01°13' E 103°39'0 0.1
2015-Aug-22 10:19N 01°13' E 103°39'5 6.4
2015-Aug-22 09:33N 01°15' E 103°44'2 0.0
2015-Aug-20 20:33N 01°14' E 103°45'  
Track history (hours):
 
Tides and Currents Weather Stations Pressure Air Temp Water Temp Dewpoint Dewpoint Depression Visibility Wind Speed Wind Dir Waves Ship Positions

Jbu Maas

Last reported at 2015-Aug-30 17:33 UTC. Time now 2015-Sep-02 19:04 UTC.
Position N 01°15' E 104°04'.

Length 126 m; draft 7.3 m.

Type: Tanker. MMSI: 372492000.

Date/timePositionNaut miles runAvg speedWind from/ knotsBaromVisibWave heightAir tempDewpointWater temp
2015-Aug-30 17:33N 01°15' E 104°04'1515.3
2015-Aug-30 16:33N 01°10' E 103°49'10 4.2
2015-Aug-30 14:04N 01°12' E 103°39'1 0.5
2015-Aug-30 11:27N 01°13' E 103°39'7 7.9
2015-Aug-30 10:32N 01°16' E 103°46'2 0.8
2015-Aug-30 08:32N 01°14' E 103°45'0 0.0
2015-Aug-30 07:26N 01°14' E 103°45'0 0.0
2015-Aug-30 06:08N 01°14' E 103°45'0 0.0
2015-Aug-30 04:14N 01°14' E 103°45'0 0.0
2015-Aug-30 03:26N 01°14' E 103°45'0 0.0
2015-Aug-30 00:20N 01°14' E 103°45'0 0.0
2015-Aug-29 23:32N 01°14' E 103°45'0 0.0
2015-Aug-29 21:26N 01°14' E 103°45'0 0.0
2015-Aug-29 19:26N 01°14' E 103°45'0 0.0
2015-Aug-29 18:32N 01°14' E 103°45'0 0.0
2015-Aug-29 17:08N 01°14' E 103°45'0 0.0
2015-Aug-29 16:32N 01°14' E 103°45'1 0.0
2015-Aug-28 23:33N 01°15' E 103°45'7 0.3
2015-Aug-28 01:24N 01°12' E 103°52'1214.5
2015-Aug-28 00:33N 01°16' E 104°04'  
2015-Aug-22 14:33N 01°14' E 104°00'21 7.0
2015-Aug-22 11:31N 01°13' E 103°39'0 0.1
2015-Aug-22 10:19N 01°13' E 103°39'5 6.4
2015-Aug-22 09:33N 01°15' E 103°44'2 0.0
2015-Aug-20 20:33N 01°14' E 103°45'  

Dump ship's entire track history